sensor_id;sensor_type;location;lat;lon;timestamp;P1;durP1;ratioP1;P2;durP2;ratioP2
30635;SDS011;17400;52.392;9.750;2024-03-08T00:00:17;19.95;;;10.70;;
30635;SDS011;17400;52.392;9.750;2024-03-08T00:03:05;20.13;;;9.57;;
30635;SDS011;17400;52.392;9.750;2024-03-08T00:05:51;22.87;;;10.10;;
30635;SDS011;17400;52.392;9.750;2024-03-08T00:08:39;16.70;;;9.67;;
30635;SDS011;17400;52.392;9.750;2024-03-08T00:11:25;19.45;;;11.25;;
30635;SDS011;17400;52.392;9.750;2024-03-08T00:14:11;21.97;;;12.23;;
30635;SDS011;17400;52.392;9.750;2024-03-08T00:16:58;24.97;;;11.50;;
30635;SDS011;17400;52.392;9.750;2024-03-08T00:19:44;18.07;;;10.33;;
30635;SDS011;17400;52.392;9.750;2024-03-08T00:22:30;23.17;;;10.95;;
30635;SDS011;17400;52.392;9.750;2024-03-08T00:25:18;21.97;;;11.00;;
30635;SDS011;17400;52.392;9.750;2024-03-08T00:28:05;18.90;;;10.30;;
30635;SDS011;17400;52.392;9.750;2024-03-08T00:30:51;22.87;;;12.80;;
30635;SDS011;17400;52.392;9.750;2024-03-08T00:33:37;24.73;;;11.77;;
30635;SDS011;17400;52.392;9.750;2024-03-08T00:36:24;21.77;;;11.57;;
30635;SDS011;17400;52.392;9.750;2024-03-08T00:39:11;19.43;;;10.30;;
30635;SDS011;17400;52.392;9.750;2024-03-08T00:41:59;19.47;;;10.33;;
30635;SDS011;17400;52.392;9.750;2024-03-08T00:44:46;21.17;;;10.47;;
30635;SDS011;17400;52.392;9.750;2024-03-08T00:47:32;22.30;;;10.93;;
30635;SDS011;17400;52.392;9.750;2024-03-08T00:50:19;19.93;;;11.20;;
30635;SDS011;17400;52.392;9.750;2024-03-08T00:53:05;21.80;;;11.67;;
30635;SDS011;17400;52.392;9.750;2024-03-08T00:55:51;23.93;;;13.50;;
30635;SDS011;17400;52.392;9.750;2024-03-08T00:58:39;23.80;;;11.30;;
30635;SDS011;17400;52.392;9.750;2024-03-08T01:01:25;22.93;;;11.03;;
30635;SDS011;17400;52.392;9.750;2024-03-08T01:04:12;19.47;;;10.47;;
30635;SDS011;17400;52.392;9.750;2024-03-08T01:06:58;19.47;;;11.13;;
30635;SDS011;17400;52.392;9.750;2024-03-08T01:09:45;23.70;;;11.00;;
30635;SDS011;17400;52.392;9.750;2024-03-08T01:12:31;20.50;;;11.50;;
30635;SDS011;17400;52.392;9.750;2024-03-08T01:15:19;23.27;;;11.47;;
30635;SDS011;17400;52.392;9.750;2024-03-08T01:18:05;23.50;;;12.23;;
30635;SDS011;17400;52.392;9.750;2024-03-08T01:20:52;23.77;;;10.93;;
30635;SDS011;17400;52.392;9.750;2024-03-08T01:23:38;20.10;;;10.13;;
30635;SDS011;17400;52.392;9.750;2024-03-08T01:26:24;22.17;;;11.67;;
30635;SDS011;17400;52.392;9.750;2024-03-08T01:29:11;23.20;;;12.47;;
30635;SDS011;17400;52.392;9.750;2024-03-08T01:31:58;23.57;;;11.03;;
30635;SDS011;17400;52.392;9.750;2024-03-08T01:34:49;22.87;;;11.83;;
30635;SDS011;17400;52.392;9.750;2024-03-08T01:37:35;23.50;;;12.03;;
30635;SDS011;17400;52.392;9.750;2024-03-08T01:40:21;20.80;;;11.97;;
30635;SDS011;17400;52.392;9.750;2024-03-08T01:43:17;20.40;;;11.07;;
30635;SDS011;17400;52.392;9.750;2024-03-08T01:46:06;21.57;;;10.67;;
30635;SDS011;17400;52.392;9.750;2024-03-08T01:48:56;25.90;;;12.07;;
30635;SDS011;17400;52.392;9.750;2024-03-08T01:51:43;23.20;;;10.30;;
30635;SDS011;17400;52.392;9.750;2024-03-08T01:54:29;24.07;;;12.00;;
30635;SDS011;17400;52.392;9.750;2024-03-08T01:57:17;22.87;;;12.03;;
30635;SDS011;17400;52.392;9.750;2024-03-08T02:00:03;19.53;;;9.60;;
30635;SDS011;17400;52.392;9.750;2024-03-08T02:02:50;22.50;;;10.70;;
30635;SDS011;17400;52.392;9.750;2024-03-08T02:05:39;23.10;;;11.50;;
30635;SDS011;17400;52.392;9.750;2024-03-08T02:08:26;25.20;;;13.23;;
30635;SDS011;17400;52.392;9.750;2024-03-08T02:11:12;22.10;;;11.93;;
30635;SDS011;17400;52.392;9.750;2024-03-08T02:14:00;29.40;;;12.40;;
30635;SDS011;17400;52.392;9.750;2024-03-08T02:16:47;21.47;;;11.13;;
30635;SDS011;17400;52.392;9.750;2024-03-08T02:19:33;23.00;;;11.90;;
30635;SDS011;17400;52.392;9.750;2024-03-08T02:22:22;21.77;;;12.77;;
30635;SDS011;17400;52.392;9.750;2024-03-08T02:25:08;20.53;;;11.43;;
30635;SDS011;17400;52.392;9.750;2024-03-08T02:27:55;21.40;;;10.97;;
30635;SDS011;17400;52.392;9.750;2024-03-08T02:30:41;22.10;;;11.60;;
30635;SDS011;17400;52.392;9.750;2024-03-08T02:33:28;23.03;;;11.43;;
30635;SDS011;17400;52.392;9.750;2024-03-08T02:36:14;22.33;;;11.43;;
30635;SDS011;17400;52.392;9.750;2024-03-08T02:39:03;25.13;;;12.40;;
30635;SDS011;17400;52.392;9.750;2024-03-08T02:41:50;21.53;;;10.70;;
30635;SDS011;17400;52.392;9.750;2024-03-08T02:44:37;18.83;;;10.27;;
30635;SDS011;17400;52.392;9.750;2024-03-08T02:47:23;25.10;;;11.37;;
30635;SDS011;17400;52.392;9.750;2024-03-08T02:50:11;22.47;;;11.27;;
30635;SDS011;17400;52.392;9.750;2024-03-08T02:53:01;23.93;;;13.07;;
30635;SDS011;17400;52.392;9.750;2024-03-08T02:55:49;21.03;;;11.47;;
30635;SDS011;17400;52.392;9.750;2024-03-08T02:58:35;22.70;;;11.37;;
30635;SDS011;17400;52.392;9.750;2024-03-08T03:01:21;25.27;;;11.90;;
30635;SDS011;17400;52.392;9.750;2024-03-08T03:04:07;23.77;;;11.47;;
30635;SDS011;17400;52.392;9.750;2024-03-08T03:06:53;21.63;;;12.03;;
30635;SDS011;17400;52.392;9.750;2024-03-08T03:09:40;24.17;;;11.83;;
30635;SDS011;17400;52.392;9.750;2024-03-08T03:12:27;21.20;;;10.33;;
30635;SDS011;17400;52.392;9.750;2024-03-08T03:15:13;21.60;;;11.37;;
30635;SDS011;17400;52.392;9.750;2024-03-08T03:18:01;24.20;;;11.73;;
30635;SDS011;17400;52.392;9.750;2024-03-08T03:20:48;21.27;;;12.20;;
30635;SDS011;17400;52.392;9.750;2024-03-08T03:23:34;19.20;;;10.60;;
30635;SDS011;17400;52.392;9.750;2024-03-08T03:26:21;23.93;;;11.50;;
30635;SDS011;17400;52.392;9.750;2024-03-08T03:29:09;24.83;;;11.93;;
30635;SDS011;17400;52.392;9.750;2024-03-08T03:31:55;20.30;;;10.57;;
30635;SDS011;17400;52.392;9.750;2024-03-08T03:34:42;20.83;;;9.70;;
30635;SDS011;17400;52.392;9.750;2024-03-08T03:37:29;21.50;;;10.47;;
30635;SDS011;17400;52.392;9.750;2024-03-08T03:40:15;18.07;;;9.90;;
30635;SDS011;17400;52.392;9.750;2024-03-08T03:43:03;22.23;;;10.23;;
30635;SDS011;17400;52.392;9.750;2024-03-08T03:45:51;24.07;;;12.13;;
30635;SDS011;17400;52.392;9.750;2024-03-08T03:48:39;19.80;;;10.00;;
30635;SDS011;17400;52.392;9.750;2024-03-08T03:51:28;25.93;;;12.17;;
30635;SDS011;17400;52.392;9.750;2024-03-08T03:54:15;21.17;;;10.80;;
30635;SDS011;17400;52.392;9.750;2024-03-08T03:57:01;18.57;;;9.57;;
30635;SDS011;17400;52.392;9.750;2024-03-08T03:59:48;24.33;;;13.10;;
30635;SDS011;17400;52.392;9.750;2024-03-08T04:02:37;21.07;;;11.23;;
30635;SDS011;17400;52.392;9.750;2024-03-08T04:05:24;21.90;;;11.90;;
30635;SDS011;17400;52.392;9.750;2024-03-08T04:08:10;19.43;;;10.33;;
30635;SDS011;17400;52.392;9.750;2024-03-08T04:10:56;22.20;;;11.83;;
30635;SDS011;17400;52.392;9.750;2024-03-08T04:13:43;26.87;;;12.87;;
30635;SDS011;17400;52.392;9.750;2024-03-08T04:16:29;22.70;;;10.77;;
30635;SDS011;17400;52.392;9.750;2024-03-08T04:19:17;22.07;;;11.27;;
30635;SDS011;17400;52.392;9.750;2024-03-08T04:22:05;25.57;;;12.00;;
30635;SDS011;17400;52.392;9.750;2024-03-08T04:24:52;19.13;;;11.57;;
30635;SDS011;17400;52.392;9.750;2024-03-08T04:27:38;20.47;;;10.80;;
30635;SDS011;17400;52.392;9.750;2024-03-08T04:30:25;18.47;;;10.57;;
30635;SDS011;17400;52.392;9.750;2024-03-08T04:33:13;22.07;;;11.27;;
30635;SDS011;17400;52.392;9.750;2024-03-08T04:36:02;20.40;;;11.33;;
30635;SDS011;17400;52.392;9.750;2024-03-08T04:38:49;21.27;;;12.23;;
30635;SDS011;17400;52.392;9.750;2024-03-08T04:41:36;18.77;;;10.77;;
30635;SDS011;17400;52.392;9.750;2024-03-08T04:44:22;26.33;;;12.17;;
30635;SDS011;17400;52.392;9.750;2024-03-08T04:47:09;19.90;;;10.70;;
30635;SDS011;17400;52.392;9.750;2024-03-08T04:49:55;20.47;;;10.43;;
30635;SDS011;17400;52.392;9.750;2024-03-08T04:52:44;21.43;;;12.00;;
30635;SDS011;17400;52.392;9.750;2024-03-08T04:55:31;22.57;;;10.43;;
30635;SDS011;17400;52.392;9.750;2024-03-08T04:58:17;24.20;;;11.60;;
30635;SDS011;17400;52.392;9.750;2024-03-08T05:01:03;23.23;;;10.93;;
30635;SDS011;17400;52.392;9.750;2024-03-08T05:03:50;23.27;;;11.33;;
30635;SDS011;17400;52.392;9.750;2024-03-08T05:06:40;23.90;;;12.57;;
30635;SDS011;17400;52.392;9.750;2024-03-08T05:09:27;22.73;;;11.10;;
30635;SDS011;17400;52.392;9.750;2024-03-08T05:12:16;24.83;;;12.23;;
30635;SDS011;17400;52.392;9.750;2024-03-08T05:15:03;21.60;;;11.53;;
30635;SDS011;17400;52.392;9.750;2024-03-08T05:17:50;25.77;;;11.77;;
30635;SDS011;17400;52.392;9.750;2024-03-08T05:20:36;26.47;;;12.13;;
30635;SDS011;17400;52.392;9.750;2024-03-08T05:23:22;28.53;;;13.20;;
30635;SDS011;17400;52.392;9.750;2024-03-08T05:26:10;30.23;;;14.77;;
30635;SDS011;17400;52.392;9.750;2024-03-08T05:28:56;23.93;;;12.13;;
30635;SDS011;17400;52.392;9.750;2024-03-08T05:31:45;22.93;;;12.10;;
30635;SDS011;17400;52.392;9.750;2024-03-08T05:34:33;23.13;;;12.27;;
30635;SDS011;17400;52.392;9.750;2024-03-08T05:37:19;22.43;;;12.77;;
30635;SDS011;17400;52.392;9.750;2024-03-08T05:40:05;25.13;;;12.20;;
30635;SDS011;17400;52.392;9.750;2024-03-08T05:43:02;24.67;;;12.63;;
30635;SDS011;17400;52.392;9.750;2024-03-08T05:45:50;27.23;;;12.90;;
30635;SDS011;17400;52.392;9.750;2024-03-08T05:48:36;24.57;;;13.87;;
30635;SDS011;17400;52.392;9.750;2024-03-08T05:51:23;27.67;;;13.03;;
30635;SDS011;17400;52.392;9.750;2024-03-08T05:54:11;25.80;;;13.13;;
30635;SDS011;17400;52.392;9.750;2024-03-08T05:57:02;23.37;;;14.07;;
30635;SDS011;17400;52.392;9.750;2024-03-08T05:59:49;26.50;;;13.37;;
30635;SDS011;17400;52.392;9.750;2024-03-08T06:02:35;32.13;;;15.80;;
30635;SDS011;17400;52.392;9.750;2024-03-08T06:05:25;33.60;;;17.00;;
30635;SDS011;17400;52.392;9.750;2024-03-08T06:08:11;27.57;;;13.37;;
30635;SDS011;17400;52.392;9.750;2024-03-08T06:10:59;27.30;;;15.20;;
30635;SDS011;17400;52.392;9.750;2024-03-08T06:13:47;23.80;;;13.37;;
30635;SDS011;17400;52.392;9.750;2024-03-08T06:16:36;30.57;;;13.97;;
30635;SDS011;17400;52.392;9.750;2024-03-08T06:19:23;25.70;;;14.23;;
30635;SDS011;17400;52.392;9.750;2024-03-08T06:22:10;33.30;;;15.53;;
30635;SDS011;17400;52.392;9.750;2024-03-08T06:24:56;27.57;;;14.13;;
30635;SDS011;17400;52.392;9.750;2024-03-08T06:27:42;24.23;;;13.53;;
30635;SDS011;17400;52.392;9.750;2024-03-08T06:30:30;33.93;;;18.30;;
30635;SDS011;17400;52.392;9.750;2024-03-08T06:33:18;29.00;;;15.57;;
30635;SDS011;17400;52.392;9.750;2024-03-08T06:36:05;26.93;;;16.20;;
30635;SDS011;17400;52.392;9.750;2024-03-08T06:38:52;26.90;;;14.50;;
30635;SDS011;17400;52.392;9.750;2024-03-08T06:41:40;32.13;;;16.80;;
30635;SDS011;17400;52.392;9.750;2024-03-08T06:44:29;27.60;;;14.07;;
30635;SDS011;17400;52.392;9.750;2024-03-08T06:47:15;32.93;;;16.80;;
30635;SDS011;17400;52.392;9.750;2024-03-08T06:50:03;30.60;;;15.30;;
30635;SDS011;17400;52.392;9.750;2024-03-08T06:52:50;29.23;;;15.27;;
30635;SDS011;17400;52.392;9.750;2024-03-08T06:55:38;34.10;;;15.53;;
30635;SDS011;17400;52.392;9.750;2024-03-08T06:58:24;34.03;;;15.40;;
30635;SDS011;17400;52.392;9.750;2024-03-08T07:01:10;30.83;;;16.80;;
30635;SDS011;17400;52.392;9.750;2024-03-08T07:03:59;30.20;;;15.37;;
30635;SDS011;17400;52.392;9.750;2024-03-08T07:06:51;31.93;;;15.40;;
30635;SDS011;17400;52.392;9.750;2024-03-08T07:09:37;27.97;;;15.00;;
30635;SDS011;17400;52.392;9.750;2024-03-08T07:12:25;35.83;;;17.10;;
30635;SDS011;17400;52.392;9.750;2024-03-08T07:15:12;33.93;;;18.33;;
30635;SDS011;17400;52.392;9.750;2024-03-08T07:18:00;33.97;;;15.50;;
30635;SDS011;17400;52.392;9.750;2024-03-08T07:20:47;34.30;;;16.20;;
30635;SDS011;17400;52.392;9.750;2024-03-08T07:23:35;33.00;;;16.87;;
30635;SDS011;17400;52.392;9.750;2024-03-08T07:26:48;29.40;;;15.83;;
30635;SDS011;17400;52.392;9.750;2024-03-08T07:29:37;41.97;;;20.90;;
30635;SDS011;17400;52.392;9.750;2024-03-08T07:32:23;32.23;;;16.53;;
30635;SDS011;17400;52.392;9.750;2024-03-08T07:35:10;29.83;;;15.70;;
30635;SDS011;17400;52.392;9.750;2024-03-08T07:37:56;32.10;;;15.00;;
30635;SDS011;17400;52.392;9.750;2024-03-08T07:40:46;32.50;;;15.90;;
30635;SDS011;17400;52.392;9.750;2024-03-08T07:43:32;34.50;;;17.20;;
30635;SDS011;17400;52.392;9.750;2024-03-08T07:46:19;30.97;;;17.30;;
30635;SDS011;17400;52.392;9.750;2024-03-08T07:49:05;29.13;;;15.73;;
30635;SDS011;17400;52.392;9.750;2024-03-08T07:51:55;34.00;;;20.00;;
30635;SDS011;17400;52.392;9.750;2024-03-08T07:54:42;32.47;;;18.07;;
30635;SDS011;17400;52.392;9.750;2024-03-08T07:57:30;34.17;;;17.33;;
30635;SDS011;17400;52.392;9.750;2024-03-08T08:00:17;29.13;;;16.63;;
30635;SDS011;17400;52.392;9.750;2024-03-08T08:03:03;33.10;;;18.60;;
30635;SDS011;17400;52.392;9.750;2024-03-08T08:05:50;34.40;;;18.53;;
30635;SDS011;17400;52.392;9.750;2024-03-08T08:08:36;30.43;;;18.23;;
30635;SDS011;17400;52.392;9.750;2024-03-08T08:11:22;29.10;;;14.40;;
30635;SDS011;17400;52.392;9.750;2024-03-08T08:14:09;32.87;;;19.83;;
30635;SDS011;17400;52.392;9.750;2024-03-08T08:16:56;33.17;;;15.37;;
30635;SDS011;17400;52.392;9.750;2024-03-08T08:19:45;35.57;;;20.00;;
30635;SDS011;17400;52.392;9.750;2024-03-08T08:22:32;32.60;;;18.87;;
30635;SDS011;17400;52.392;9.750;2024-03-08T08:25:18;37.63;;;22.77;;
30635;SDS011;17400;52.392;9.750;2024-03-08T08:28:05;35.10;;;17.73;;
30635;SDS011;17400;52.392;9.750;2024-03-08T08:30:52;32.87;;;18.67;;
30635;SDS011;17400;52.392;9.750;2024-03-08T08:33:38;30.80;;;17.40;;
30635;SDS011;17400;52.392;9.750;2024-03-08T08:36:25;35.50;;;17.87;;
30635;SDS011;17400;52.392;9.750;2024-03-08T08:39:11;30.20;;;17.37;;
30635;SDS011;17400;52.392;9.750;2024-03-08T08:41:58;29.33;;;15.57;;
30635;SDS011;17400;52.392;9.750;2024-03-08T08:44:44;36.23;;;20.70;;
30635;SDS011;17400;52.392;9.750;2024-03-08T08:47:32;30.07;;;17.30;;
30635;SDS011;17400;52.392;9.750;2024-03-08T08:50:19;29.60;;;18.20;;
30635;SDS011;17400;52.392;9.750;2024-03-08T08:53:08;36.07;;;20.30;;
30635;SDS011;17400;52.392;9.750;2024-03-08T08:55:54;36.47;;;18.90;;
30635;SDS011;17400;52.392;9.750;2024-03-08T08:58:41;37.87;;;22.60;;
30635;SDS011;17400;52.392;9.750;2024-03-08T09:01:28;30.70;;;19.00;;
30635;SDS011;17400;52.392;9.750;2024-03-08T09:04:15;36.13;;;21.37;;
30635;SDS011;17400;52.392;9.750;2024-03-08T09:07:01;35.33;;;18.87;;
30635;SDS011;17400;52.392;9.750;2024-03-08T09:09:51;31.27;;;16.93;;
30635;SDS011;17400;52.392;9.750;2024-03-08T09:12:41;36.40;;;19.63;;
30635;SDS011;17400;52.392;9.750;2024-03-08T09:15:27;32.27;;;19.00;;
30635;SDS011;17400;52.392;9.750;2024-03-08T09:18:14;39.47;;;21.10;;
30635;SDS011;17400;52.392;9.750;2024-03-08T09:21:01;35.43;;;18.40;;
30635;SDS011;17400;52.392;9.750;2024-03-08T09:23:48;25.97;;;15.73;;
30635;SDS011;17400;52.392;9.750;2024-03-08T09:26:34;29.63;;;15.37;;
30635;SDS011;17400;52.392;9.750;2024-03-08T09:29:21;27.97;;;14.57;;
30635;SDS011;17400;52.392;9.750;2024-03-08T09:32:08;31.77;;;16.90;;
30635;SDS011;17400;52.392;9.750;2024-03-08T09:34:54;32.90;;;19.90;;
30635;SDS011;17400;52.392;9.750;2024-03-08T09:37:42;29.10;;;17.57;;
30635;SDS011;17400;52.392;9.750;2024-03-08T09:40:28;31.43;;;17.77;;
30635;SDS011;17400;52.392;9.750;2024-03-08T09:43:14;33.73;;;19.57;;
30635;SDS011;17400;52.392;9.750;2024-03-08T09:46:00;31.17;;;15.60;;
30635;SDS011;17400;52.392;9.750;2024-03-08T09:48:46;25.70;;;14.57;;
30635;SDS011;17400;52.392;9.750;2024-03-08T09:51:33;26.00;;;12.80;;
30635;SDS011;17400;52.392;9.750;2024-03-08T09:54:22;32.47;;;17.63;;
30635;SDS011;17400;52.392;9.750;2024-03-08T09:57:09;34.27;;;20.07;;
30635;SDS011;17400;52.392;9.750;2024-03-08T09:59:56;33.80;;;18.60;;
30635;SDS011;17400;52.392;9.750;2024-03-08T10:02:43;28.90;;;16.57;;
30635;SDS011;17400;52.392;9.750;2024-03-08T10:05:31;33.63;;;19.03;;
30635;SDS011;17400;52.392;9.750;2024-03-08T10:08:18;30.13;;;19.75;;
30635;SDS011;17400;52.392;9.750;2024-03-08T10:11:06;31.88;;;19.08;;
30635;SDS011;17400;52.392;9.750;2024-03-08T10:13:53;34.00;;;21.25;;
30635;SDS011;17400;52.392;9.750;2024-03-08T10:16:41;31.95;;;17.38;;
30635;SDS011;17400;52.392;9.750;2024-03-08T10:19:27;30.17;;;15.18;;
30635;SDS011;17400;52.392;9.750;2024-03-08T10:22:15;27.17;;;14.83;;
30635;SDS011;17400;52.392;9.750;2024-03-08T10:25:01;24.65;;;14.02;;
30635;SDS011;17400;52.392;9.750;2024-03-08T10:27:51;30.23;;;19.25;;
30635;SDS011;17400;52.392;9.750;2024-03-08T10:30:37;30.27;;;16.23;;
30635;SDS011;17400;52.392;9.750;2024-03-08T10:33:23;33.47;;;17.75;;
30635;SDS011;17400;52.392;9.750;2024-03-08T10:36:10;35.35;;;17.67;;
30635;SDS011;17400;52.392;9.750;2024-03-08T10:38:58;28.63;;;17.02;;
30635;SDS011;17400;52.392;9.750;2024-03-08T10:41:48;32.20;;;16.15;;
30635;SDS011;17400;52.392;9.750;2024-03-08T10:44:46;27.98;;;15.02;;
30635;SDS011;17400;52.392;9.750;2024-03-08T10:47:40;29.35;;;16.00;;
30635;SDS011;17400;52.392;9.750;2024-03-08T10:50:27;33.42;;;18.90;;
30635;SDS011;17400;52.392;9.750;2024-03-08T10:53:16;28.00;;;15.82;;
30635;SDS011;17400;52.392;9.750;2024-03-08T10:56:05;27.42;;;14.45;;
30635;SDS011;17400;52.392;9.750;2024-03-08T10:58:52;25.35;;;13.57;;
30635;SDS011;17400;52.392;9.750;2024-03-08T11:01:42;32.38;;;15.25;;
30635;SDS011;17400;52.392;9.750;2024-03-08T11:04:28;26.92;;;15.60;;
30635;SDS011;17400;52.392;9.750;2024-03-08T11:07:14;36.47;;;19.58;;
30635;SDS011;17400;52.392;9.750;2024-03-08T11:10:06;28.63;;;15.25;;
30635;SDS011;17400;52.392;9.750;2024-03-08T11:13:04;31.95;;;16.30;;
30635;SDS011;17400;52.392;9.750;2024-03-08T11:16:36;34.55;;;17.08;;
30635;SDS011;17400;52.392;9.750;2024-03-08T11:19:25;25.70;;;13.75;;
30635;SDS011;17400;52.392;9.750;2024-03-08T11:22:20;28.52;;;15.23;;
30635;SDS011;17400;52.392;9.750;2024-03-08T11:25:30;23.75;;;13.52;;
30635;SDS011;17400;52.392;9.750;2024-03-08T11:28:18;30.50;;;16.65;;
30635;SDS011;17400;52.392;9.750;2024-03-08T11:31:23;29.30;;;18.35;;
30635;SDS011;17400;52.392;9.750;2024-03-08T11:34:14;30.75;;;16.33;;
30635;SDS011;17400;52.392;9.750;2024-03-08T11:37:03;34.75;;;18.80;;
30635;SDS011;17400;52.392;9.750;2024-03-08T11:39:51;29.65;;;16.83;;
30635;SDS011;17400;52.392;9.750;2024-03-08T11:42:44;31.70;;;15.43;;
30635;SDS011;17400;52.392;9.750;2024-03-08T11:45:33;29.27;;;15.13;;
30635;SDS011;17400;52.392;9.750;2024-03-08T11:48:22;30.70;;;15.65;;
30635;SDS011;17400;52.392;9.750;2024-03-08T11:51:09;26.80;;;16.02;;
30635;SDS011;17400;52.392;9.750;2024-03-08T11:53:56;29.95;;;16.70;;
30635;SDS011;17400;52.392;9.750;2024-03-08T11:56:44;31.88;;;18.45;;
30635;SDS011;17400;52.392;9.750;2024-03-08T11:59:32;32.05;;;17.02;;
30635;SDS011;17400;52.392;9.750;2024-03-08T12:02:18;25.45;;;13.85;;
30635;SDS011;17400;52.392;9.750;2024-03-08T12:05:06;31.10;;;16.92;;
30635;SDS011;17400;52.392;9.750;2024-03-08T12:07:56;30.25;;;16.67;;
30635;SDS011;17400;52.392;9.750;2024-03-08T12:10:42;33.05;;;19.27;;
30635;SDS011;17400;52.392;9.750;2024-03-08T12:13:29;31.05;;;18.40;;
30635;SDS011;17400;52.392;9.750;2024-03-08T12:16:17;30.80;;;15.25;;
30635;SDS011;17400;52.392;9.750;2024-03-08T12:19:06;30.67;;;19.23;;
30635;SDS011;17400;52.392;9.750;2024-03-08T12:21:55;25.60;;;16.35;;
30635;SDS011;17400;52.392;9.750;2024-03-08T12:24:41;31.58;;;13.93;;
30635;SDS011;17400;52.392;9.750;2024-03-08T12:27:29;38.25;;;20.75;;
30635;SDS011;17400;52.392;9.750;2024-03-08T12:30:17;28.20;;;15.75;;
30635;SDS011;17400;52.392;9.750;2024-03-08T12:33:05;26.33;;;14.45;;
30635;SDS011;17400;52.392;9.750;2024-03-08T12:35:55;23.50;;;14.25;;
30635;SDS011;17400;52.392;9.750;2024-03-08T12:38:44;22.92;;;13.68;;
30635;SDS011;17400;52.392;9.750;2024-03-08T12:41:33;21.63;;;12.82;;
30635;SDS011;17400;52.392;9.750;2024-03-08T12:44:25;24.35;;;17.38;;
30635;SDS011;17400;52.392;9.750;2024-03-08T12:47:13;25.02;;;15.90;;
30635;SDS011;17400;52.392;9.750;2024-03-08T12:49:59;25.45;;;14.23;;
30635;SDS011;17400;52.392;9.750;2024-03-08T12:52:46;30.92;;;17.58;;
30635;SDS011;17400;52.392;9.750;2024-03-08T12:55:37;33.40;;;16.38;;
30635;SDS011;17400;52.392;9.750;2024-03-08T12:58:23;30.42;;;15.70;;
30635;SDS011;17400;52.392;9.750;2024-03-08T13:01:11;30.98;;;16.08;;
30635;SDS011;17400;52.392;9.750;2024-03-08T13:03:58;30.05;;;17.08;;
30635;SDS011;17400;52.392;9.750;2024-03-08T13:06:45;27.55;;;15.95;;
30635;SDS011;17400;52.392;9.750;2024-03-08T13:09:39;30.92;;;15.38;;
30635;SDS011;17400;52.392;9.750;2024-03-08T13:12:28;33.38;;;20.05;;
30635;SDS011;17400;52.392;9.750;2024-03-08T13:15:15;26.85;;;15.32;;
30635;SDS011;17400;52.392;9.750;2024-03-08T13:18:05;32.00;;;16.67;;
30635;SDS011;17400;52.392;9.750;2024-03-08T13:20:53;29.42;;;15.77;;
30635;SDS011;17400;52.392;9.750;2024-03-08T13:23:40;27.13;;;17.23;;
30635;SDS011;17400;52.392;9.750;2024-03-08T13:26:30;23.02;;;15.00;;
30635;SDS011;17400;52.392;9.750;2024-03-08T13:29:19;29.23;;;15.18;;
30635;SDS011;17400;52.392;9.750;2024-03-08T13:32:06;33.78;;;18.20;;
30635;SDS011;17400;52.392;9.750;2024-03-08T13:34:52;28.52;;;17.20;;
30635;SDS011;17400;52.392;9.750;2024-03-08T13:37:41;24.38;;;13.13;;
30635;SDS011;17400;52.392;9.750;2024-03-08T13:40:28;23.83;;;13.52;;
30635;SDS011;17400;52.392;9.750;2024-03-08T13:43:16;31.17;;;14.38;;
30635;SDS011;17400;52.392;9.750;2024-03-08T13:46:04;23.65;;;14.15;;
30635;SDS011;17400;52.392;9.750;2024-03-08T13:48:51;19.55;;;13.75;;
30635;SDS011;17400;52.392;9.750;2024-03-08T13:51:39;25.00;;;13.88;;
30635;SDS011;17400;52.392;9.750;2024-03-08T13:54:26;23.77;;;14.05;;
30635;SDS011;17400;52.392;9.750;2024-03-08T13:57:16;27.80;;;15.73;;
30635;SDS011;17400;52.392;9.750;2024-03-08T14:00:03;26.52;;;15.52;;
30635;SDS011;17400;52.392;9.750;2024-03-08T14:02:53;26.70;;;17.70;;
30635;SDS011;17400;52.392;9.750;2024-03-08T14:05:39;24.45;;;15.30;;
30635;SDS011;17400;52.392;9.750;2024-03-08T14:08:27;21.70;;;13.70;;
30635;SDS011;17400;52.392;9.750;2024-03-08T14:11:13;25.67;;;14.18;;
30635;SDS011;17400;52.392;9.750;2024-03-08T14:14:00;24.73;;;14.63;;
30635;SDS011;17400;52.392;9.750;2024-03-08T14:16:46;25.00;;;14.65;;
30635;SDS011;17400;52.392;9.750;2024-03-08T14:19:35;27.52;;;15.95;;
30635;SDS011;17400;52.392;9.750;2024-03-08T14:22:21;25.15;;;14.68;;
30635;SDS011;17400;52.392;9.750;2024-03-08T14:25:08;25.33;;;16.33;;
30635;SDS011;17400;52.392;9.750;2024-03-08T14:28:03;25.83;;;13.85;;
30635;SDS011;17400;52.392;9.750;2024-03-08T14:30:52;21.85;;;12.27;;
30635;SDS011;17400;52.392;9.750;2024-03-08T14:33:38;26.80;;;13.45;;
30635;SDS011;17400;52.392;9.750;2024-03-08T14:36:28;21.75;;;13.18;;
30635;SDS011;17400;52.392;9.750;2024-03-08T14:39:14;27.17;;;14.25;;
30635;SDS011;17400;52.392;9.750;2024-03-08T14:42:00;22.48;;;14.93;;
30635;SDS011;17400;52.392;9.750;2024-03-08T14:44:47;22.45;;;12.60;;
30635;SDS011;17400;52.392;9.750;2024-03-08T14:47:37;27.63;;;16.13;;
30635;SDS011;17400;52.392;9.750;2024-03-08T14:50:24;25.45;;;15.13;;
30635;SDS011;17400;52.392;9.750;2024-03-08T14:53:12;23.63;;;14.13;;
30635;SDS011;17400;52.392;9.750;2024-03-08T14:56:00;23.48;;;10.93;;
30635;SDS011;17400;52.392;9.750;2024-03-08T14:58:47;22.55;;;12.35;;
30635;SDS011;17400;52.392;9.750;2024-03-08T15:01:36;24.85;;;12.88;;
30635;SDS011;17400;52.392;9.750;2024-03-08T15:04:22;26.30;;;14.93;;
30635;SDS011;17400;52.392;9.750;2024-03-08T15:07:09;22.83;;;14.95;;
30635;SDS011;17400;52.392;9.750;2024-03-08T15:09:57;28.17;;;14.38;;
30635;SDS011;17400;52.392;9.750;2024-03-08T15:12:44;23.23;;;14.27;;
30635;SDS011;17400;52.392;9.750;2024-03-08T15:15:35;24.13;;;14.60;;
30635;SDS011;17400;52.392;9.750;2024-03-08T15:18:27;25.15;;;15.50;;
30635;SDS011;17400;52.392;9.750;2024-03-08T15:21:19;23.73;;;12.70;;
30635;SDS011;17400;52.392;9.750;2024-03-08T15:24:06;24.75;;;15.27;;
30635;SDS011;17400;52.392;9.750;2024-03-08T15:26:56;22.73;;;13.55;;
30635;SDS011;17400;52.392;9.750;2024-03-08T15:29:43;22.83;;;12.82;;
30635;SDS011;17400;52.392;9.750;2024-03-08T15:32:32;27.77;;;13.95;;
30635;SDS011;17400;52.392;9.750;2024-03-08T15:35:19;25.10;;;13.32;;
30635;SDS011;17400;52.392;9.750;2024-03-08T15:38:06;25.10;;;14.55;;
30635;SDS011;17400;52.392;9.750;2024-03-08T15:40:53;26.33;;;15.18;;
30635;SDS011;17400;52.392;9.750;2024-03-08T15:43:40;23.40;;;17.35;;
30635;SDS011;17400;52.392;9.750;2024-03-08T15:46:27;26.17;;;14.15;;
30635;SDS011;17400;52.392;9.750;2024-03-08T15:49:13;23.50;;;13.93;;
30635;SDS011;17400;52.392;9.750;2024-03-08T15:51:59;22.55;;;13.68;;
30635;SDS011;17400;52.392;9.750;2024-03-08T15:54:47;23.45;;;13.32;;
30635;SDS011;17400;52.392;9.750;2024-03-08T15:57:33;30.20;;;13.68;;
30635;SDS011;17400;52.392;9.750;2024-03-08T16:00:22;22.00;;;12.38;;
30635;SDS011;17400;52.392;9.750;2024-03-08T16:03:18;21.30;;;13.10;;
30635;SDS011;17400;52.392;9.750;2024-03-08T16:06:05;23.42;;;12.70;;
30635;SDS011;17400;52.392;9.750;2024-03-08T16:08:51;22.27;;;13.27;;
30635;SDS011;17400;52.392;9.750;2024-03-08T16:11:38;23.67;;;14.10;;
30635;SDS011;17400;52.392;9.750;2024-03-08T16:14:25;23.83;;;11.65;;
30635;SDS011;17400;52.392;9.750;2024-03-08T16:17:13;23.65;;;14.30;;
30635;SDS011;17400;52.392;9.750;2024-03-08T16:19:59;22.88;;;11.25;;